sensor_id;sensor_type;location;lat;lon;timestamp;P1;durP1;ratioP1;P2;durP2;ratioP2
12832;SDS011;6483;51.310;4.462;2022-09-03T00:01:09;1.92;;;1.55;;
12832;SDS011;6483;51.310;4.462;2022-09-03T00:03:51;1.35;;;1.20;;
12832;SDS011;6483;51.310;4.462;2022-09-03T00:06:22;1.33;;;1.23;;
12832;SDS011;6483;51.310;4.462;2022-09-03T00:11:24;1.83;;;1.20;;
12832;SDS011;6483;51.310;4.462;2022-09-03T00:13:58;2.65;;;1.23;;
12832;SDS011;6483;51.310;4.462;2022-09-03T00:16:33;2.30;;;1.30;;
12832;SDS011;6483;51.310;4.462;2022-09-03T00:19:05;5.03;;;1.45;;
12832;SDS011;6483;51.310;4.462;2022-09-03T00:24:07;2.92;;;1.40;;
12832;SDS011;6483;51.310;4.462;2022-09-03T00:26:38;3.40;;;1.65;;
12832;SDS011;6483;51.310;4.462;2022-09-03T00:29:10;2.55;;;1.45;;
12832;SDS011;6483;51.310;4.462;2022-09-03T00:32:01;5.90;;;1.60;;
12832;SDS011;6483;51.310;4.462;2022-09-03T00:34:30;3.85;;;1.45;;
12832;SDS011;6483;51.310;4.462;2022-09-03T00:37:00;1.50;;;1.10;;
12832;SDS011;6483;51.310;4.462;2022-09-03T00:39:27;1.45;;;1.20;;
12832;SDS011;6483;51.310;4.462;2022-09-03T00:42:03;3.83;;;1.27;;
12832;SDS011;6483;51.310;4.462;2022-09-03T00:44:46;2.92;;;1.40;;
12832;SDS011;6483;51.310;4.462;2022-09-03T00:58:07;3.00;;;1.10;;
12832;SDS011;6483;51.310;4.462;2022-09-03T01:00:35;1.27;;;1.17;;
12832;SDS011;6483;51.310;4.462;2022-09-03T01:03:21;3.13;;;1.90;;
12832;SDS011;6483;51.310;4.462;2022-09-03T01:19:22;1.80;;;1.30;;
12832;SDS011;6483;51.310;4.462;2022-09-03T01:24:46;9.77;;;1.70;;
12832;SDS011;6483;51.310;4.462;2022-09-03T01:30:24;3.03;;;1.30;;
12832;SDS011;6483;51.310;4.462;2022-09-03T01:33:08;1.30;;;1.20;;
12832;SDS011;6483;51.310;4.462;2022-09-03T01:35:43;2.55;;;1.50;;
12832;SDS011;6483;51.310;4.462;2022-09-03T01:43:36;3.03;;;1.70;;
12832;SDS011;6483;51.310;4.462;2022-09-03T01:46:22;2.47;;;1.55;;
12832;SDS011;6483;51.310;4.462;2022-09-03T01:48:56;2.28;;;1.40;;
12832;SDS011;6483;51.310;4.462;2022-09-03T01:51:27;1.35;;;1.17;;
12832;SDS011;6483;51.310;4.462;2022-09-03T02:01:44;2.15;;;1.30;;
12832;SDS011;6483;51.310;4.462;2022-09-03T02:04:23;4.00;;;1.63;;
12832;SDS011;6483;51.310;4.462;2022-09-03T02:06:50;3.15;;;1.40;;
12832;SDS011;6483;51.310;4.462;2022-09-03T02:09:17;3.28;;;1.40;;
12832;SDS011;6483;51.310;4.462;2022-09-03T02:11:49;4.43;;;1.50;;
12832;SDS011;6483;51.310;4.462;2022-09-03T02:14:18;2.00;;;1.05;;
12832;SDS011;6483;51.310;4.462;2022-09-03T02:16:45;1.48;;;1.38;;
12832;SDS011;6483;51.310;4.462;2022-09-03T02:19:12;2.88;;;1.40;;
12832;SDS011;6483;51.310;4.462;2022-09-03T02:21:42;4.18;;;1.55;;
12832;SDS011;6483;51.310;4.462;2022-09-03T02:24:10;1.30;;;1.20;;
12832;SDS011;6483;51.310;4.462;2022-09-03T02:26:54;3.40;;;1.13;;
12832;SDS011;6483;51.310;4.462;2022-09-03T02:29:20;1.83;;;1.30;;
12832;SDS011;6483;51.310;4.462;2022-09-03T02:31:46;4.63;;;1.85;;
12832;SDS011;6483;51.310;4.462;2022-09-03T02:34:14;3.40;;;1.45;;
12832;SDS011;6483;51.310;4.462;2022-09-03T02:36:41;1.55;;;1.30;;
12832;SDS011;6483;51.310;4.462;2022-09-03T02:39:10;2.47;;;1.52;;
12832;SDS011;6483;51.310;4.462;2022-09-03T02:41:36;1.40;;;1.30;;
12832;SDS011;6483;51.310;4.462;2022-09-03T02:44:10;1.67;;;1.30;;
12832;SDS011;6483;51.310;4.462;2022-09-03T02:46:38;1.63;;;1.10;;
12832;SDS011;6483;51.310;4.462;2022-09-03T02:49:09;3.60;;;1.52;;
12832;SDS011;6483;51.310;4.462;2022-09-03T02:51:39;2.03;;;1.55;;
12832;SDS011;6483;51.310;4.462;2022-09-03T02:54:06;3.08;;;1.35;;
12832;SDS011;6483;51.310;4.462;2022-09-03T02:56:36;1.83;;;1.20;;
12832;SDS011;6483;51.310;4.462;2022-09-03T02:59:03;2.88;;;1.50;;
12832;SDS011;6483;51.310;4.462;2022-09-03T03:01:29;2.63;;;1.48;;
12832;SDS011;6483;51.310;4.462;2022-09-03T03:03:55;3.83;;;1.30;;
12832;SDS011;6483;51.310;4.462;2022-09-03T03:06:25;2.35;;;1.40;;
12832;SDS011;6483;51.310;4.462;2022-09-03T03:08:51;2.83;;;1.35;;
12832;SDS011;6483;51.310;4.462;2022-09-03T03:11:19;4.00;;;1.30;;
12832;SDS011;6483;51.310;4.462;2022-09-03T03:13:47;2.92;;;1.30;;
12832;SDS011;6483;51.310;4.462;2022-09-03T03:16:16;2.92;;;1.63;;
12832;SDS011;6483;51.310;4.462;2022-09-03T03:18:42;1.35;;;1.25;;
12832;SDS011;6483;51.310;4.462;2022-09-03T03:21:17;1.98;;;1.70;;
12832;SDS011;6483;51.310;4.462;2022-09-03T03:23:43;2.95;;;1.45;;
12832;SDS011;6483;51.310;4.462;2022-09-03T03:26:10;2.22;;;1.42;;
12832;SDS011;6483;51.310;4.462;2022-09-03T03:28:37;3.03;;;1.60;;
12832;SDS011;6483;51.310;4.462;2022-09-03T03:33:35;1.55;;;1.25;;
12832;SDS011;6483;51.310;4.462;2022-09-03T03:36:03;1.40;;;1.30;;
12832;SDS011;6483;51.310;4.462;2022-09-03T03:38:29;1.60;;;1.50;;
12832;SDS011;6483;51.310;4.462;2022-09-03T03:40:55;2.08;;;1.40;;
12832;SDS011;6483;51.310;4.462;2022-09-03T03:43:21;1.58;;;1.42;;
12832;SDS011;6483;51.310;4.462;2022-09-03T03:45:59;1.92;;;1.50;;
12832;SDS011;6483;51.310;4.462;2022-09-03T03:48:25;4.40;;;1.55;;
12832;SDS011;6483;51.310;4.462;2022-09-03T03:50:54;2.10;;;1.45;;
12832;SDS011;6483;51.310;4.462;2022-09-03T03:53:20;2.47;;;1.23;;
12832;SDS011;6483;51.310;4.462;2022-09-03T03:55:58;2.67;;;1.40;;
12832;SDS011;6483;51.310;4.462;2022-09-03T03:58:28;1.30;;;1.20;;
12832;SDS011;6483;51.310;4.462;2022-09-03T04:01:19;2.88;;;1.50;;
12832;SDS011;6483;51.310;4.462;2022-09-03T04:03:43;4.20;;;1.60;;
12832;SDS011;6483;51.310;4.462;2022-09-03T04:06:14;2.55;;;1.50;;
12832;SDS011;6483;51.310;4.462;2022-09-03T04:08:41;2.63;;;1.45;;
12832;SDS011;6483;51.310;4.462;2022-09-03T04:11:08;2.28;;;1.27;;
12832;SDS011;6483;51.310;4.462;2022-09-03T04:13:36;1.67;;;1.58;;
12832;SDS011;6483;51.310;4.462;2022-09-03T04:16:04;2.05;;;1.40;;
12832;SDS011;6483;51.310;4.462;2022-09-03T04:18:31;4.60;;;1.70;;
12832;SDS011;6483;51.310;4.462;2022-09-03T04:21:01;2.50;;;1.55;;
12832;SDS011;6483;51.310;4.462;2022-09-03T04:23:31;2.70;;;1.55;;
12832;SDS011;6483;51.310;4.462;2022-09-03T04:25:57;1.58;;;1.40;;
12832;SDS011;6483;51.310;4.462;2022-09-03T04:28:23;1.95;;;1.42;;
12832;SDS011;6483;51.310;4.462;2022-09-03T04:30:49;2.45;;;1.50;;
12832;SDS011;6483;51.310;4.462;2022-09-03T04:33:15;3.67;;;1.67;;
12832;SDS011;6483;51.310;4.462;2022-09-03T04:35:41;2.42;;;1.60;;
12832;SDS011;6483;51.310;4.462;2022-09-03T04:38:10;5.88;;;2.55;;
12832;SDS011;6483;51.310;4.462;2022-09-03T04:40:39;3.05;;;1.60;;
12832;SDS011;6483;51.310;4.462;2022-09-03T04:43:08;4.82;;;1.52;;
12832;SDS011;6483;51.310;4.462;2022-09-03T04:45:35;2.33;;;1.65;;
12832;SDS011;6483;51.310;4.462;2022-09-03T04:48:02;5.40;;;1.58;;
12832;SDS011;6483;51.310;4.462;2022-09-03T04:50:29;2.97;;;1.48;;
12832;SDS011;6483;51.310;4.462;2022-09-03T04:53:00;2.05;;;1.30;;
12832;SDS011;6483;51.310;4.462;2022-09-03T04:55:27;4.25;;;1.33;;
12832;SDS011;6483;51.310;4.462;2022-09-03T04:57:53;3.83;;;1.58;;
12832;SDS011;6483;51.310;4.462;2022-09-03T05:00:20;4.75;;;1.50;;
12832;SDS011;6483;51.310;4.462;2022-09-03T05:02:49;1.83;;;1.52;;
12832;SDS011;6483;51.310;4.462;2022-09-03T05:05:16;3.55;;;1.42;;
12832;SDS011;6483;51.310;4.462;2022-09-03T05:07:42;1.85;;;1.33;;
12832;SDS011;6483;51.310;4.462;2022-09-03T05:10:09;4.55;;;1.35;;
12832;SDS011;6483;51.310;4.462;2022-09-03T05:12:44;2.30;;;1.33;;
12832;SDS011;6483;51.310;4.462;2022-09-03T05:15:11;1.88;;;1.60;;
12832;SDS011;6483;51.310;4.462;2022-09-03T05:17:38;6.63;;;1.85;;
12832;SDS011;6483;51.310;4.462;2022-09-03T05:20:07;3.40;;;1.50;;
12832;SDS011;6483;51.310;4.462;2022-09-03T05:22:34;2.22;;;1.50;;
12832;SDS011;6483;51.310;4.462;2022-09-03T05:25:01;2.40;;;1.42;;
12832;SDS011;6483;51.310;4.462;2022-09-03T05:27:29;2.28;;;1.30;;
12832;SDS011;6483;51.310;4.462;2022-09-03T05:29:55;2.03;;;1.60;;
12832;SDS011;6483;51.310;4.462;2022-09-03T05:32:21;4.70;;;1.27;;
12832;SDS011;6483;51.310;4.462;2022-09-03T05:34:53;4.05;;;1.73;;
12832;SDS011;6483;51.310;4.462;2022-09-03T05:37:22;2.10;;;1.70;;
12832;SDS011;6483;51.310;4.462;2022-09-03T05:39:48;2.92;;;1.45;;
12832;SDS011;6483;51.310;4.462;2022-09-03T05:42:14;2.45;;;1.48;;
12832;SDS011;6483;51.310;4.462;2022-09-03T05:44:40;1.98;;;1.30;;
12832;SDS011;6483;51.310;4.462;2022-09-03T05:47:07;3.20;;;1.40;;
12832;SDS011;6483;51.310;4.462;2022-09-03T05:49:33;2.60;;;1.33;;
12832;SDS011;6483;51.310;4.462;2022-09-03T05:51:59;1.80;;;1.15;;
12832;SDS011;6483;51.310;4.462;2022-09-03T05:54:25;5.88;;;1.70;;
12832;SDS011;6483;51.310;4.462;2022-09-03T05:56:55;2.25;;;1.60;;
12832;SDS011;6483;51.310;4.462;2022-09-03T05:59:22;1.98;;;1.40;;
12832;SDS011;6483;51.310;4.462;2022-09-03T06:01:48;4.45;;;2.05;;
12832;SDS011;6483;51.310;4.462;2022-09-03T06:04:14;2.30;;;1.33;;
12832;SDS011;6483;51.310;4.462;2022-09-03T06:06:44;5.40;;;1.63;;
12832;SDS011;6483;51.310;4.462;2022-09-03T06:09:11;2.20;;;1.52;;
12832;SDS011;6483;51.310;4.462;2022-09-03T06:11:39;6.63;;;1.52;;
12832;SDS011;6483;51.310;4.462;2022-09-03T06:14:10;1.73;;;1.40;;
12832;SDS011;6483;51.310;4.462;2022-09-03T06:16:37;3.08;;;1.65;;
12832;SDS011;6483;51.310;4.462;2022-09-03T06:19:07;3.47;;;1.35;;
12832;SDS011;6483;51.310;4.462;2022-09-03T06:21:38;2.35;;;1.30;;
12832;SDS011;6483;51.310;4.462;2022-09-03T06:24:10;2.85;;;1.42;;
12832;SDS011;6483;51.310;4.462;2022-09-03T06:26:38;4.35;;;1.58;;
12832;SDS011;6483;51.310;4.462;2022-09-03T06:29:07;3.50;;;1.80;;
12832;SDS011;6483;51.310;4.462;2022-09-03T06:31:34;1.88;;;1.48;;
12832;SDS011;6483;51.310;4.462;2022-09-03T06:34:00;3.33;;;1.40;;
12832;SDS011;6483;51.310;4.462;2022-09-03T06:36:27;4.32;;;1.40;;
12832;SDS011;6483;51.310;4.462;2022-09-03T06:38:53;3.22;;;1.60;;
12832;SDS011;6483;51.310;4.462;2022-09-03T06:41:21;2.13;;;1.50;;
12832;SDS011;6483;51.310;4.462;2022-09-03T06:43:51;3.05;;;1.40;;
12832;SDS011;6483;51.310;4.462;2022-09-03T06:46:19;1.50;;;1.27;;
12832;SDS011;6483;51.310;4.462;2022-09-03T06:48:45;2.92;;;1.63;;
12832;SDS011;6483;51.310;4.462;2022-09-03T06:51:14;3.38;;;1.42;;
12832;SDS011;6483;51.310;4.462;2022-09-03T06:53:47;2.83;;;1.40;;
12832;SDS011;6483;51.310;4.462;2022-09-03T06:56:14;3.05;;;1.45;;
12832;SDS011;6483;51.310;4.462;2022-09-03T06:58:44;2.75;;;1.50;;
12832;SDS011;6483;51.310;4.462;2022-09-03T07:03:38;2.60;;;1.65;;
12832;SDS011;6483;51.310;4.462;2022-09-03T07:06:11;2.17;;;1.30;;
12832;SDS011;6483;51.310;4.462;2022-09-03T07:08:41;4.05;;;1.67;;
12832;SDS011;6483;51.310;4.462;2022-09-03T07:11:17;3.10;;;1.60;;
12832;SDS011;6483;51.310;4.462;2022-09-03T07:13:45;3.47;;;1.33;;
12832;SDS011;6483;51.310;4.462;2022-09-03T07:16:13;3.47;;;1.50;;
12832;SDS011;6483;51.310;4.462;2022-09-03T07:18:43;3.13;;;1.58;;
12832;SDS011;6483;51.310;4.462;2022-09-03T07:21:13;2.30;;;1.35;;
12832;SDS011;6483;51.310;4.462;2022-09-03T07:23:39;3.33;;;1.23;;
12832;SDS011;6483;51.310;4.462;2022-09-03T07:26:06;3.22;;;1.33;;
12832;SDS011;6483;51.310;4.462;2022-09-03T07:28:34;2.17;;;1.30;;
12832;SDS011;6483;51.310;4.462;2022-09-03T07:31:02;4.70;;;1.40;;
12832;SDS011;6483;51.310;4.462;2022-09-03T07:33:29;1.67;;;1.55;;
12832;SDS011;6483;51.310;4.462;2022-09-03T07:35:55;4.65;;;1.38;;
12832;SDS011;6483;51.310;4.462;2022-09-03T07:38:23;2.88;;;1.50;;
12832;SDS011;6483;51.310;4.462;2022-09-03T07:40:55;5.95;;;1.60;;
12832;SDS011;6483;51.310;4.462;2022-09-03T07:43:23;3.78;;;1.52;;
12832;SDS011;6483;51.310;4.462;2022-09-03T07:45:49;2.83;;;1.30;;
12832;SDS011;6483;51.310;4.462;2022-09-03T07:48:15;3.45;;;1.48;;
12832;SDS011;6483;51.310;4.462;2022-09-03T07:50:44;2.50;;;1.70;;
12832;SDS011;6483;51.310;4.462;2022-09-03T07:53:12;2.58;;;1.40;;
12832;SDS011;6483;51.310;4.462;2022-09-03T07:55:38;2.33;;;1.33;;
12832;SDS011;6483;51.310;4.462;2022-09-03T07:58:04;4.72;;;1.85;;
12832;SDS011;6483;51.310;4.462;2022-09-03T08:00:31;4.10;;;1.40;;
12832;SDS011;6483;51.310;4.462;2022-09-03T08:02:57;6.40;;;1.52;;
12832;SDS011;6483;51.310;4.462;2022-09-03T08:05:34;3.47;;;1.67;;
12832;SDS011;6483;51.310;4.462;2022-09-03T08:08:04;4.30;;;1.52;;
12832;SDS011;6483;51.310;4.462;2022-09-03T08:10:34;3.25;;;1.58;;
12832;SDS011;6483;51.310;4.462;2022-09-03T08:13:04;3.25;;;1.48;;
12832;SDS011;6483;51.310;4.462;2022-09-03T08:15:33;2.97;;;1.40;;
12832;SDS011;6483;51.310;4.462;2022-09-03T08:18:01;6.15;;;1.45;;
12832;SDS011;6483;51.310;4.462;2022-09-03T08:20:29;2.67;;;1.40;;
12832;SDS011;6483;51.310;4.462;2022-09-03T08:22:59;1.98;;;1.33;;
12832;SDS011;6483;51.310;4.462;2022-09-03T08:25:30;3.58;;;1.27;;
12832;SDS011;6483;51.310;4.462;2022-09-03T08:27:58;1.30;;;1.20;;
12832;SDS011;6483;51.310;4.462;2022-09-03T08:30:26;3.85;;;1.45;;
12832;SDS011;6483;51.310;4.462;2022-09-03T08:32:52;2.38;;;1.35;;
12832;SDS011;6483;51.310;4.462;2022-09-03T08:35:18;4.85;;;2.00;;
12832;SDS011;6483;51.310;4.462;2022-09-03T08:37:45;5.38;;;1.30;;
12832;SDS011;6483;51.310;4.462;2022-09-03T08:40:16;3.10;;;1.45;;
12832;SDS011;6483;51.310;4.462;2022-09-03T08:42:45;3.33;;;1.40;;
12832;SDS011;6483;51.310;4.462;2022-09-03T08:45:16;2.20;;;1.58;;
12832;SDS011;6483;51.310;4.462;2022-09-03T08:47:47;2.17;;;1.40;;
12832;SDS011;6483;51.310;4.462;2022-09-03T08:50:31;4.38;;;1.13;;
12832;SDS011;6483;51.310;4.462;2022-09-03T08:53:02;19.40;;;3.65;;
12832;SDS011;6483;51.310;4.462;2022-09-03T08:55:35;5.35;;;1.67;;
12832;SDS011;6483;51.310;4.462;2022-09-03T08:58:14;3.58;;;1.35;;
12832;SDS011;6483;51.310;4.462;2022-09-03T09:11:21;6.25;;;1.40;;
12832;SDS011;6483;51.310;4.462;2022-09-03T09:13:58;6.38;;;1.60;;
12832;SDS011;6483;51.310;4.462;2022-09-03T09:19:09;3.47;;;1.30;;
12832;SDS011;6483;51.310;4.462;2022-09-03T09:22:25;4.32;;;1.70;;
12832;SDS011;6483;51.310;4.462;2022-09-03T09:24:25;3.22;;;1.13;;
12832;SDS011;6483;51.310;4.462;2022-09-03T09:26:57;17.33;;;3.25;;
12832;SDS011;6483;51.310;4.462;2022-09-03T09:29:24;4.80;;;1.30;;
12832;SDS011;6483;51.310;4.462;2022-09-03T09:31:58;2.88;;;1.50;;
12832;SDS011;6483;51.310;4.462;2022-09-03T09:34:27;2.05;;;1.27;;
12832;SDS011;6483;51.310;4.462;2022-09-03T09:36:54;3.08;;;1.48;;
12832;SDS011;6483;51.310;4.462;2022-09-03T09:39:20;6.15;;;1.45;;
12832;SDS011;6483;51.310;4.462;2022-09-03T09:41:57;41.40;;;5.65;;
12832;SDS011;6483;51.310;4.462;2022-09-03T09:44:29;4.18;;;1.60;;
12832;SDS011;6483;51.310;4.462;2022-09-03T09:47:04;5.43;;;1.50;;
12832;SDS011;6483;51.310;4.462;2022-09-03T09:49:32;5.25;;;1.42;;
12832;SDS011;6483;51.310;4.462;2022-09-03T09:52:10;3.40;;;1.42;;
12832;SDS011;6483;51.310;4.462;2022-09-03T09:54:40;3.30;;;1.38;;
12832;SDS011;6483;51.310;4.462;2022-09-03T09:57:06;5.60;;;2.13;;
12832;SDS011;6483;51.310;4.462;2022-09-03T09:59:33;3.67;;;1.65;;
12832;SDS011;6483;51.310;4.462;2022-09-03T10:02:18;5.47;;;1.58;;
12832;SDS011;6483;51.310;4.462;2022-09-03T10:05:00;1.67;;;1.58;;
12832;SDS011;6483;51.310;4.462;2022-09-03T10:07:28;4.63;;;1.75;;
12832;SDS011;6483;51.310;4.462;2022-09-03T10:12:35;2.15;;;1.30;;
12832;SDS011;6483;51.310;4.462;2022-09-03T10:15:19;4.65;;;1.70;;
12832;SDS011;6483;51.310;4.462;2022-09-03T10:17:56;1.95;;;1.60;;
12832;SDS011;6483;51.310;4.462;2022-09-03T10:23:06;3.75;;;1.40;;
12832;SDS011;6483;51.310;4.462;2022-09-03T10:25:39;2.65;;;1.50;;
12832;SDS011;6483;51.310;4.462;2022-09-03T10:28:08;3.53;;;1.73;;
12832;SDS011;6483;51.310;4.462;2022-09-03T10:33:29;6.00;;;1.58;;
12832;SDS011;6483;51.310;4.462;2022-09-03T10:38:39;1.83;;;1.52;;
12832;SDS011;6483;51.310;4.462;2022-09-03T10:43:50;2.28;;;1.48;;
12832;SDS011;6483;51.310;4.462;2022-09-03T10:46:26;3.15;;;1.50;;
12832;SDS011;6483;51.310;4.462;2022-09-03T10:51:39;3.28;;;1.70;;
12832;SDS011;6483;51.310;4.462;2022-09-03T10:59:35;3.17;;;1.40;;
12832;SDS011;6483;51.310;4.462;2022-09-03T11:02:28;3.00;;;1.40;;
12832;SDS011;6483;51.310;4.462;2022-09-03T11:05:00;3.25;;;1.70;;
12832;SDS011;6483;51.310;4.462;2022-09-03T11:07:31;4.05;;;1.52;;
12832;SDS011;6483;51.310;4.462;2022-09-03T11:12:39;4.00;;;1.80;;
12832;SDS011;6483;51.310;4.462;2022-09-03T11:15:22;4.38;;;1.95;;
12832;SDS011;6483;51.310;4.462;2022-09-03T11:18:27;1.92;;;1.52;;
12832;SDS011;6483;51.310;4.462;2022-09-03T11:20:55;2.90;;;2.00;;
12832;SDS011;6483;51.310;4.462;2022-09-03T11:23:26;3.13;;;1.65;;
12832;SDS011;6483;51.310;4.462;2022-09-03T11:25:53;2.92;;;1.90;;
12832;SDS011;6483;51.310;4.462;2022-09-03T11:36:36;2.42;;;1.38;;
12832;SDS011;6483;51.310;4.462;2022-09-03T11:41:40;2.25;;;1.40;;
12832;SDS011;6483;51.310;4.462;2022-09-03T11:44:19;3.63;;;1.63;;
12832;SDS011;6483;51.310;4.462;2022-09-03T11:46:54;3.05;;;1.80;;
12832;SDS011;6483;51.310;4.462;2022-09-03T11:49:27;6.75;;;1.50;;
12832;SDS011;6483;51.310;4.462;2022-09-03T11:51:58;4.10;;;1.58;;
12832;SDS011;6483;51.310;4.462;2022-09-03T11:54:25;2.00;;;1.48;;
12832;SDS011;6483;51.310;4.462;2022-09-03T11:59:43;7.88;;;1.60;;
12832;SDS011;6483;51.310;4.462;2022-09-03T12:13:16;3.13;;;1.58;;
12832;SDS011;6483;51.310;4.462;2022-09-03T12:18:22;5.13;;;1.80;;
12832;SDS011;6483;51.310;4.462;2022-09-03T12:21:00;2.97;;;1.42;;
12832;SDS011;6483;51.310;4.462;2022-09-03T12:23:31;2.25;;;1.50;;
12832;SDS011;6483;51.310;4.462;2022-09-03T12:26:01;2.40;;;1.75;;
12832;SDS011;6483;51.310;4.462;2022-09-03T12:28:29;1.98;;;1.80;;
12832;SDS011;6483;51.310;4.462;2022-09-03T12:31:07;1.85;;;1.58;;
12832;SDS011;6483;51.310;4.462;2022-09-03T12:33:41;1.80;;;1.50;;
12832;SDS011;6483;51.310;4.462;2022-09-03T12:36:07;2.00;;;1.60;;
12832;SDS011;6483;51.310;4.462;2022-09-03T12:38:40;2.05;;;1.50;;
12832;SDS011;6483;51.310;4.462;2022-09-03T12:41:18;3.40;;;1.77;;
12832;SDS011;6483;51.310;4.462;2022-09-03T12:43:49;6.20;;;1.83;;
12832;SDS011;6483;51.310;4.462;2022-09-03T12:46:16;1.70;;;1.60;;
12832;SDS011;6483;51.310;4.462;2022-09-03T12:48:52;4.00;;;1.98;;
12832;SDS011;6483;51.310;4.462;2022-09-03T12:51:18;1.98;;;1.75;;
12832;SDS011;6483;51.310;4.462;2022-09-03T12:53:45;5.88;;;1.92;;
12832;SDS011;6483;51.310;4.462;2022-09-03T12:56:11;1.98;;;1.60;;
12832;SDS011;6483;51.310;4.462;2022-09-03T12:59:21;5.32;;;2.10;;
12832;SDS011;6483;51.310;4.462;2022-09-03T13:01:35;2.72;;;1.98;;
12832;SDS011;6483;51.310;4.462;2022-09-03T13:04:08;1.77;;;1.50;;
12832;SDS011;6483;51.310;4.462;2022-09-03T13:09:34;2.35;;;1.70;;
12832;SDS011;6483;51.310;4.462;2022-09-03T13:12:01;5.30;;;1.77;;
12832;SDS011;6483;51.310;4.462;2022-09-03T13:14:40;2.30;;;1.80;;
12832;SDS011;6483;51.310;4.462;2022-09-03T13:17:10;2.00;;;1.73;;
12832;SDS011;6483;51.310;4.462;2022-09-03T13:27:32;5.13;;;2.17;;
12832;SDS011;6483;51.310;4.462;2022-09-03T13:30:08;3.20;;;1.83;;
12832;SDS011;6483;51.310;4.462;2022-09-03T13:37:48;5.13;;;1.92;;
12832;SDS011;6483;51.310;4.462;2022-09-03T13:40:31;4.55;;;2.28;;
12832;SDS011;6483;51.310;4.462;2022-09-03T13:43:04;4.78;;;2.10;;
12832;SDS011;6483;51.310;4.462;2022-09-03T13:45:43;4.32;;;2.08;;
12832;SDS011;6483;51.310;4.462;2022-09-03T13:48:19;3.08;;;1.70;;
12832;SDS011;6483;51.310;4.462;2022-09-03T13:51:25;3.22;;;1.90;;
12832;SDS011;6483;51.310;4.462;2022-09-03T13:53:58;3.67;;;2.08;;
12832;SDS011;6483;51.310;4.462;2022-09-03T13:59:00;2.53;;;1.50;;
12832;SDS011;6483;51.310;4.462;2022-09-03T14:01:57;1.70;;;1.60;;
12832;SDS011;6483;51.310;4.462;2022-09-03T14:04:25;4.10;;;1.73;;
12832;SDS011;6483;51.310;4.462;2022-09-03T14:10:03;1.75;;;1.60;;
12832;SDS011;6483;51.310;4.462;2022-09-03T14:12:42;2.45;;;1.95;;
12832;SDS011;6483;51.310;4.462;2022-09-03T14:15:25;2.00;;;1.80;;
12832;SDS011;6483;51.310;4.462;2022-09-03T14:18:08;2.75;;;1.70;;
12832;SDS011;6483;51.310;4.462;2022-09-03T14:20:39;4.40;;;1.95;;
12832;SDS011;6483;51.310;4.462;2022-09-03T14:23:17;2.58;;;2.03;;
12832;SDS011;6483;51.310;4.462;2022-09-03T14:25:54;2.30;;;2.10;;
12832;SDS011;6483;51.310;4.462;2022-09-03T14:28:30;4.10;;;2.30;;
12832;SDS011;6483;51.310;4.462;2022-09-03T14:31:16;3.83;;;1.90;;
12832;SDS011;6483;51.310;4.462;2022-09-03T14:36:31;2.05;;;1.80;;
12832;SDS011;6483;51.310;4.462;2022-09-03T14:44:26;2.95;;;2.20;;
12832;SDS011;6483;51.310;4.462;2022-09-03T15:00:19;2.67;;;2.20;;
12832;SDS011;6483;51.310;4.462;2022-09-03T15:05:45;5.05;;;2.33;;
12832;SDS011;6483;51.310;4.462;2022-09-03T15:08:23;2.88;;;1.98;;
12832;SDS011;6483;51.310;4.462;2022-09-03T15:10:54;4.03;;;2.42;;
12832;SDS011;6483;51.310;4.462;2022-09-03T15:13:26;2.80;;;2.20;;
12832;SDS011;6483;51.310;4.462;2022-09-03T15:16:07;4.68;;;2.30;;
12832;SDS011;6483;51.310;4.462;2022-09-03T15:34:54;4.28;;;2.20;;
12832;SDS011;6483;51.310;4.462;2022-09-03T15:37:27;2.95;;;1.92;;
12832;SDS011;6483;51.310;4.462;2022-09-03T15:40:40;2.50;;;2.30;;
12832;SDS011;6483;51.310;4.462;2022-09-03T15:42:39;2.58;;;2.33;;
12832;SDS011;6483;51.310;4.462;2022-09-03T15:47:56;4.50;;;2.08;;
12832;SDS011;6483;51.310;4.462;2022-09-03T15:55:49;2.72;;;2.10;;
12832;SDS011;6483;51.310;4.462;2022-09-03T15:58:44;1.75;;;1.65;;
12832;SDS011;6483;51.310;4.462;2022-09-03T16:03:57;3.45;;;2.30;;
12832;SDS011;6483;51.310;4.462;2022-09-03T16:14:54;2.53;;;1.92;;
12832;SDS011;6483;51.310;4.462;2022-09-03T16:17:28;5.00;;;2.38;;
12832;SDS011;6483;51.310;4.462;2022-09-03T16:20:03;4.25;;;2.42;;
12832;SDS011;6483;51.310;4.462;2022-09-03T16:25:27;6.03;;;2.83;;
12832;SDS011;6483;51.310;4.462;2022-09-03T16:27:59;3.85;;;3.05;;
12832;SDS011;6483;51.310;4.462;2022-09-03T16:38:44;11.40;;;3.22;;
12832;SDS011;6483;51.310;4.462;2022-09-03T16:41:18;3.28;;;2.90;;
12832;SDS011;6483;51.310;4.462;2022-09-03T16:44:14;5.32;;;3.38;;
12832;SDS011;6483;51.310;4.462;2022-09-03T17:00:05;6.97;;;3.50;;
12832;SDS011;6483;51.310;4.462;2022-09-03T17:05:14;6.03;;;3.22;;
12832;SDS011;6483;51.310;4.462;2022-09-03T17:10:29;3.00;;;2.75;;
12832;SDS011;6483;51.310;4.462;2022-09-03T17:13:02;3.30;;;3.00;;
12832;SDS011;6483;51.310;4.462;2022-09-03T17:15:33;3.25;;;2.90;;
12832;SDS011;6483;51.310;4.462;2022-09-03T17:18:25;4.25;;;3.05;;
12832;SDS011;6483;51.310;4.462;2022-09-03T17:26:16;3.05;;;2.75;;
12832;SDS011;6483;51.310;4.462;2022-09-03T17:34:18;4.15;;;2.70;;
12832;SDS011;6483;51.310;4.462;2022-09-03T17:37:34;4.90;;;2.55;;
12832;SDS011;6483;51.310;4.462;2022-09-03T17:48:23;4.35;;;3.63;;
12832;SDS011;6483;51.310;4.462;2022-09-03T17:51:01;5.70;;;3.38;;
12832;SDS011;6483;51.310;4.462;2022-09-03T17:53:37;5.90;;;3.15;;
12832;SDS011;6483;51.310;4.462;2022-09-03T17:56:26;4.97;;;3.45;;
12832;SDS011;6483;51.310;4.462;2022-09-03T17:59:04;5.35;;;3.35;;
12832;SDS011;6483;51.310;4.462;2022-09-03T18:01:37;6.22;;;2.88;;
12832;SDS011;6483;51.310;4.462;2022-09-03T18:07:05;4.00;;;3.50;;
12832;SDS011;6483;51.310;4.462;2022-09-03T18:09:40;5.63;;;3.80;;
12832;SDS011;6483;51.310;4.462;2022-09-03T18:14:48;3.65;;;3.35;;
12832;SDS011;6483;51.310;4.462;2022-09-03T18:17:38;5.15;;;3.88;;
12832;SDS011;6483;51.310;4.462;2022-09-03T18:20:04;7.93;;;4.70;;
12832;SDS011;6483;51.310;4.462;2022-09-03T18:23:04;3.90;;;3.25;;
12832;SDS011;6483;51.310;4.462;2022-09-03T18:25:55;5.15;;;3.53;;
12832;SDS011;6483;51.310;4.462;2022-09-03T18:28:46;5.35;;;3.15;;
12832;SDS011;6483;51.310;4.462;2022-09-03T18:31:33;3.55;;;3.25;;
12832;SDS011;6483;51.310;4.462;2022-09-03T18:34:19;5.32;;;3.35;;
12832;SDS011;6483;51.310;4.462;2022-09-03T18:37:04;4.03;;;3.15;;
12832;SDS011;6483;51.310;4.462;2022-09-03T18:39:49;3.08;;;2.83;;
12832;SDS011;6483;51.310;4.462;2022-09-03T18:42:49;6.00;;;3.33;;
12832;SDS011;6483;51.310;4.462;2022-09-03T18:48:48;6.95;;;3.45;;
12832;SDS011;6483;51.310;4.462;2022-09-03T18:54:48;6.35;;;3.55;;
12832;SDS011;6483;51.310;4.462;2022-09-03T19:00:42;4.85;;;4.13;;
12832;SDS011;6483;51.310;4.462;2022-09-03T19:03:34;6.07;;;4.50;;
12832;SDS011;6483;51.310;4.462;2022-09-03T19:09:15;5.40;;;4.50;;
12832;SDS011;6483;51.310;4.462;2022-09-03T19:12:24;5.55;;;4.97;;
12832;SDS011;6483;51.310;4.462;2022-09-03T19:15:13;5.97;;;5.22;;
12832;SDS011;6483;51.310;4.462;2022-09-03T19:20:59;6.97;;;5.82;;
12832;SDS011;6483;51.310;4.462;2022-09-03T19:23:47;6.43;;;5.82;;
12832;SDS011;6483;51.310;4.462;2022-09-03T19:26:37;7.05;;;6.32;;
12832;SDS011;6483;51.310;4.462;2022-09-03T19:30:10;8.68;;;7.05;;
12832;SDS011;6483;51.310;4.462;2022-09-03T19:32:35;6.60;;;5.97;;
12832;SDS011;6483;51.310;4.462;2022-09-03T19:35:25;7.80;;;6.00;;
12832;SDS011;6483;51.310;4.462;2022-09-03T19:38:21;7.88;;;6.95;;
12832;SDS011;6483;51.310;4.462;2022-09-03T19:41:24;8.50;;;6.82;;
12832;SDS011;6483;51.310;4.462;2022-09-03T19:44:17;9.05;;;7.22;;
12832;SDS011;6483;51.310;4.462;2022-09-03T19:47:07;6.70;;;6.10;;
12832;SDS011;6483;51.310;4.462;2022-09-03T19:52:56;8.02;;;6.50;;
12832;SDS011;6483;51.310;4.462;2022-09-03T19:55:55;7.80;;;6.55;;
12832;SDS011;6483;51.310;4.462;2022-09-03T19:58:42;8.85;;;6.93;;
12832;SDS011;6483;51.310;4.462;2022-09-03T20:01:34;7.15;;;6.45;;
12832;SDS011;6483;51.310;4.462;2022-09-03T20:04:26;7.53;;;6.82;;
12832;SDS011;6483;51.310;4.462;2022-09-03T20:07:13;8.75;;;7.20;;
12832;SDS011;6483;51.310;4.462;2022-09-03T20:09:57;9.35;;;7.00;;